sensor_id;sensor_type;location;lat;lon;timestamp;P1;durP1;ratioP1;P2;durP2;ratioP2
21626;SDS011;10975;47.872;12.972;2024-03-02T00:00:09;58.22;;;32.97;;
21626;SDS011;10975;47.872;12.972;2024-03-02T00:02:41;98.45;;;35.55;;
21626;SDS011;10975;47.872;12.972;2024-03-02T00:05:11;115.63;;;35.33;;
21626;SDS011;10975;47.872;12.972;2024-03-02T00:07:42;54.47;;;32.13;;
21626;SDS011;10975;47.872;12.972;2024-03-02T00:10:11;73.90;;;33.53;;
21626;SDS011;10975;47.872;12.972;2024-03-02T00:12:42;75.30;;;33.63;;
21626;SDS011;10975;47.872;12.972;2024-03-02T00:15:23;84.00;;;35.55;;
21626;SDS011;10975;47.872;12.972;2024-03-02T00:18:13;73.68;;;35.65;;
21626;SDS011;10975;47.872;12.972;2024-03-02T00:20:45;57.63;;;32.67;;
21626;SDS011;10975;47.872;12.972;2024-03-02T00:23:14;90.85;;;37.70;;
21626;SDS011;10975;47.872;12.972;2024-03-02T00:25:52;66.18;;;35.15;;
21626;SDS011;10975;47.872;12.972;2024-03-02T00:28:21;64.43;;;34.67;;
21626;SDS011;10975;47.872;12.972;2024-03-02T00:33:32;48.20;;;30.00;;
21626;SDS011;10975;47.872;12.972;2024-03-02T00:36:01;48.70;;;30.75;;
21626;SDS011;10975;47.872;12.972;2024-03-02T00:38:33;56.63;;;32.13;;
21626;SDS011;10975;47.872;12.972;2024-03-02T00:41:04;64.18;;;33.20;;
21626;SDS011;10975;47.872;12.972;2024-03-02T00:43:45;51.15;;;30.15;;
21626;SDS011;10975;47.872;12.972;2024-03-02T00:46:23;47.97;;;30.92;;
21626;SDS011;10975;47.872;12.972;2024-03-02T00:48:54;50.65;;;30.58;;
21626;SDS011;10975;47.872;12.972;2024-03-02T00:51:26;58.75;;;32.78;;
21626;SDS011;10975;47.872;12.972;2024-03-02T00:53:55;54.45;;;31.80;;
21626;SDS011;10975;47.872;12.972;2024-03-02T00:56:24;51.55;;;30.73;;
21626;SDS011;10975;47.872;12.972;2024-03-02T00:58:52;63.38;;;33.30;;
21626;SDS011;10975;47.872;12.972;2024-03-02T01:01:20;55.97;;;32.53;;
21626;SDS011;10975;47.872;12.972;2024-03-02T01:03:46;63.58;;;33.58;;
21626;SDS011;10975;47.872;12.972;2024-03-02T01:06:14;61.38;;;33.33;;
21626;SDS011;10975;47.872;12.972;2024-03-02T01:08:42;58.17;;;33.90;;
21626;SDS011;10975;47.872;12.972;2024-03-02T01:11:09;56.72;;;33.67;;
21626;SDS011;10975;47.872;12.972;2024-03-02T01:13:36;49.47;;;31.83;;
21626;SDS011;10975;47.872;12.972;2024-03-02T01:16:03;54.83;;;32.58;;
21626;SDS011;10975;47.872;12.972;2024-03-02T01:18:30;50.83;;;31.08;;
21626;SDS011;10975;47.872;12.972;2024-03-02T01:20:57;53.80;;;31.90;;
21626;SDS011;10975;47.872;12.972;2024-03-02T01:23:24;50.05;;;31.23;;
21626;SDS011;10975;47.872;12.972;2024-03-02T01:25:51;52.55;;;32.50;;
21626;SDS011;10975;47.872;12.972;2024-03-02T01:28:18;47.25;;;29.27;;
21626;SDS011;10975;47.872;12.972;2024-03-02T01:30:47;61.80;;;33.67;;
21626;SDS011;10975;47.872;12.972;2024-03-02T01:33:16;51.78;;;30.55;;
21626;SDS011;10975;47.872;12.972;2024-03-02T01:35:44;47.40;;;29.00;;
21626;SDS011;10975;47.872;12.972;2024-03-02T01:38:11;51.90;;;30.10;;
21626;SDS011;10975;47.872;12.972;2024-03-02T01:40:38;46.35;;;28.92;;
21626;SDS011;10975;47.872;12.972;2024-03-02T01:43:05;48.53;;;30.67;;
21626;SDS011;10975;47.872;12.972;2024-03-02T01:45:33;55.17;;;30.67;;
21626;SDS011;10975;47.872;12.972;2024-03-02T01:48:02;47.50;;;29.52;;
21626;SDS011;10975;47.872;12.972;2024-03-02T01:50:33;50.10;;;30.07;;
21626;SDS011;10975;47.872;12.972;2024-03-02T01:53:01;47.17;;;28.65;;
21626;SDS011;10975;47.872;12.972;2024-03-02T01:55:31;46.13;;;28.42;;
21626;SDS011;10975;47.872;12.972;2024-03-02T01:57:59;45.97;;;29.55;;
21626;SDS011;10975;47.872;12.972;2024-03-02T02:00:26;56.40;;;30.55;;
21626;SDS011;10975;47.872;12.972;2024-03-02T02:02:53;51.15;;;30.98;;
21626;SDS011;10975;47.872;12.972;2024-03-02T02:05:21;48.20;;;30.27;;
21626;SDS011;10975;47.872;12.972;2024-03-02T02:07:48;54.17;;;32.47;;
21626;SDS011;10975;47.872;12.972;2024-03-02T02:10:15;70.57;;;34.75;;
21626;SDS011;10975;47.872;12.972;2024-03-02T02:12:42;68.30;;;33.08;;
21626;SDS011;10975;47.872;12.972;2024-03-02T02:15:22;62.67;;;33.92;;
21626;SDS011;10975;47.872;12.972;2024-03-02T02:17:49;76.30;;;35.17;;
21626;SDS011;10975;47.872;12.972;2024-03-02T02:20:16;74.70;;;36.22;;
21626;SDS011;10975;47.872;12.972;2024-03-02T02:22:59;99.10;;;38.15;;
21626;SDS011;10975;47.872;12.972;2024-03-02T02:25:30;64.55;;;34.80;;
21626;SDS011;10975;47.872;12.972;2024-03-02T02:27:57;58.30;;;31.33;;
21626;SDS011;10975;47.872;12.972;2024-03-02T02:30:26;56.38;;;31.40;;
21626;SDS011;10975;47.872;12.972;2024-03-02T02:32:54;135.93;;;38.50;;
21626;SDS011;10975;47.872;12.972;2024-03-02T02:35:21;283.50;;;43.35;;
21626;SDS011;10975;47.872;12.972;2024-03-02T02:37:48;169.63;;;38.53;;
21626;SDS011;10975;47.872;12.972;2024-03-02T02:40:16;93.80;;;35.33;;
21626;SDS011;10975;47.872;12.972;2024-03-02T02:42:45;132.95;;;37.47;;
21626;SDS011;10975;47.872;12.972;2024-03-02T02:45:12;104.47;;;35.92;;
21626;SDS011;10975;47.872;12.972;2024-03-02T02:47:41;189.68;;;37.83;;
21626;SDS011;10975;47.872;12.972;2024-03-02T02:50:08;52.20;;;31.30;;
21626;SDS011;10975;47.872;12.972;2024-03-02T02:52:37;56.75;;;31.50;;
21626;SDS011;10975;47.872;12.972;2024-03-02T02:55:06;60.63;;;30.67;;
21626;SDS011;10975;47.872;12.972;2024-03-02T02:57:35;46.35;;;26.88;;
21626;SDS011;10975;47.872;12.972;2024-03-02T03:00:07;46.78;;;27.75;;
21626;SDS011;10975;47.872;12.972;2024-03-02T03:02:44;50.25;;;28.38;;
21626;SDS011;10975;47.872;12.972;2024-03-02T03:05:16;55.53;;;28.17;;
21626;SDS011;10975;47.872;12.972;2024-03-02T03:07:43;53.78;;;28.50;;
21626;SDS011;10975;47.872;12.972;2024-03-02T03:10:14;55.83;;;28.58;;
21626;SDS011;10975;47.872;12.972;2024-03-02T03:12:42;52.35;;;27.98;;
21626;SDS011;10975;47.872;12.972;2024-03-02T03:15:10;88.50;;;30.92;;
21626;SDS011;10975;47.872;12.972;2024-03-02T03:17:40;77.95;;;28.38;;
21626;SDS011;10975;47.872;12.972;2024-03-02T03:20:07;60.97;;;27.35;;
21626;SDS011;10975;47.872;12.972;2024-03-02T03:22:38;77.87;;;29.53;;
21626;SDS011;10975;47.872;12.972;2024-03-02T03:25:05;78.68;;;27.27;;
21626;SDS011;10975;47.872;12.972;2024-03-02T03:27:36;65.32;;;26.13;;
21626;SDS011;10975;47.872;12.972;2024-03-02T03:30:04;40.15;;;24.75;;
21626;SDS011;10975;47.872;12.972;2024-03-02T03:32:32;40.60;;;25.15;;
21626;SDS011;10975;47.872;12.972;2024-03-02T03:34:59;39.53;;;25.90;;
21626;SDS011;10975;47.872;12.972;2024-03-02T03:37:26;45.92;;;27.08;;
21626;SDS011;10975;47.872;12.972;2024-03-02T03:39:59;41.63;;;25.27;;
21626;SDS011;10975;47.872;12.972;2024-03-02T03:42:27;48.25;;;27.02;;
21626;SDS011;10975;47.872;12.972;2024-03-02T03:44:54;38.85;;;25.08;;
21626;SDS011;10975;47.872;12.972;2024-03-02T03:47:20;47.58;;;26.48;;
21626;SDS011;10975;47.872;12.972;2024-03-02T03:49:47;46.25;;;27.30;;
21626;SDS011;10975;47.872;12.972;2024-03-02T03:52:14;48.92;;;28.08;;
21626;SDS011;10975;47.872;12.972;2024-03-02T03:54:41;82.60;;;25.42;;
21626;SDS011;10975;47.872;12.972;2024-03-02T03:57:09;94.18;;;23.15;;
21626;SDS011;10975;47.872;12.972;2024-03-02T03:59:36;359.75;;;32.95;;
21626;SDS011;10975;47.872;12.972;2024-03-02T04:02:03;84.88;;;20.88;;
21626;SDS011;10975;47.872;12.972;2024-03-02T04:04:30;35.90;;;23.35;;
21626;SDS011;10975;47.872;12.972;2024-03-02T04:06:57;31.58;;;20.80;;
21626;SDS011;10975;47.872;12.972;2024-03-02T04:09:24;43.28;;;23.75;;
21626;SDS011;10975;47.872;12.972;2024-03-02T04:11:51;34.88;;;22.05;;
21626;SDS011;10975;47.872;12.972;2024-03-02T04:14:19;37.88;;;22.63;;
21626;SDS011;10975;47.872;12.972;2024-03-02T04:16:46;38.22;;;22.65;;
21626;SDS011;10975;47.872;12.972;2024-03-02T04:19:13;37.22;;;22.35;;
21626;SDS011;10975;47.872;12.972;2024-03-02T04:21:40;43.53;;;20.58;;
21626;SDS011;10975;47.872;12.972;2024-03-02T04:24:07;30.45;;;18.90;;
21626;SDS011;10975;47.872;12.972;2024-03-02T04:26:34;25.50;;;16.83;;
21626;SDS011;10975;47.872;12.972;2024-03-02T04:29:01;17.75;;;14.10;;
21626;SDS011;10975;47.872;12.972;2024-03-02T04:31:28;24.65;;;16.77;;
21626;SDS011;10975;47.872;12.972;2024-03-02T04:33:55;24.00;;;16.40;;
21626;SDS011;10975;47.872;12.972;2024-03-02T04:36:21;28.02;;;17.70;;
21626;SDS011;10975;47.872;12.972;2024-03-02T04:38:49;28.13;;;17.75;;
21626;SDS011;10975;47.872;12.972;2024-03-02T04:41:16;28.27;;;18.25;;
21626;SDS011;10975;47.872;12.972;2024-03-02T04:43:43;27.35;;;18.42;;
21626;SDS011;10975;47.872;12.972;2024-03-02T04:46:10;206.60;;;22.25;;
21626;SDS011;10975;47.872;12.972;2024-03-02T04:48:37;204.30;;;23.90;;
21626;SDS011;10975;47.872;12.972;2024-03-02T04:51:04;91.10;;;16.38;;
21626;SDS011;10975;47.872;12.972;2024-03-02T04:53:31;86.95;;;18.50;;
21626;SDS011;10975;47.872;12.972;2024-03-02T04:55:57;89.18;;;16.40;;
21626;SDS011;10975;47.872;12.972;2024-03-02T04:58:44;184.27;;;18.00;;
21626;SDS011;10975;47.872;12.972;2024-03-02T05:01:11;174.32;;;17.35;;
21626;SDS011;10975;47.872;12.972;2024-03-02T05:03:38;74.22;;;14.05;;
21626;SDS011;10975;47.872;12.972;2024-03-02T05:06:05;153.30;;;17.23;;
21626;SDS011;10975;47.872;12.972;2024-03-02T05:08:32;118.28;;;14.77;;
21626;SDS011;10975;47.872;12.972;2024-03-02T05:10:59;69.05;;;13.45;;
21626;SDS011;10975;47.872;12.972;2024-03-02T05:13:45;89.30;;;15.65;;
21626;SDS011;10975;47.872;12.972;2024-03-02T05:16:13;149.02;;;19.88;;
21626;SDS011;10975;47.872;12.972;2024-03-02T05:18:40;149.00;;;17.55;;
21626;SDS011;10975;47.872;12.972;2024-03-02T05:21:07;136.93;;;18.17;;
21626;SDS011;10975;47.872;12.972;2024-03-02T05:23:33;409.98;;;28.23;;
21626;SDS011;10975;47.872;12.972;2024-03-02T05:26:00;241.00;;;26.08;;
21626;SDS011;10975;47.872;12.972;2024-03-02T05:28:27;310.80;;;26.33;;
21626;SDS011;10975;47.872;12.972;2024-03-02T05:30:54;126.68;;;23.08;;
21626;SDS011;10975;47.872;12.972;2024-03-02T05:33:20;133.73;;;24.58;;
21626;SDS011;10975;47.872;12.972;2024-03-02T05:35:49;213.65;;;28.73;;
21626;SDS011;10975;47.872;12.972;2024-03-02T05:38:19;222.65;;;30.75;;
21626;SDS011;10975;47.872;12.972;2024-03-02T05:40:45;137.88;;;26.55;;
21626;SDS011;10975;47.872;12.972;2024-03-02T05:43:12;222.63;;;29.77;;
21626;SDS011;10975;47.872;12.972;2024-03-02T05:45:39;151.93;;;25.60;;
21626;SDS011;10975;47.872;12.972;2024-03-02T05:48:06;70.47;;;22.10;;
21626;SDS011;10975;47.872;12.972;2024-03-02T05:50:34;45.90;;;21.55;;
21626;SDS011;10975;47.872;12.972;2024-03-02T05:53:01;48.70;;;20.75;;
21626;SDS011;10975;47.872;12.972;2024-03-02T05:55:27;73.65;;;22.20;;
21626;SDS011;10975;47.872;12.972;2024-03-02T05:57:54;143.98;;;28.48;;
21626;SDS011;10975;47.872;12.972;2024-03-02T06:00:33;121.13;;;26.50;;
21626;SDS011;10975;47.872;12.972;2024-03-02T06:03:00;82.93;;;24.25;;
21626;SDS011;10975;47.872;12.972;2024-03-02T06:05:27;311.02;;;34.90;;
21626;SDS011;10975;47.872;12.972;2024-03-02T06:07:53;115.03;;;25.27;;
21626;SDS011;10975;47.872;12.972;2024-03-02T06:10:20;94.38;;;26.15;;
21626;SDS011;10975;47.872;12.972;2024-03-02T06:12:47;52.53;;;21.73;;
21626;SDS011;10975;47.872;12.972;2024-03-02T06:15:14;60.08;;;21.52;;
21626;SDS011;10975;47.872;12.972;2024-03-02T06:17:41;39.95;;;21.05;;
21626;SDS011;10975;47.872;12.972;2024-03-02T06:20:08;30.13;;;19.73;;
21626;SDS011;10975;47.872;12.972;2024-03-02T06:22:35;40.65;;;19.58;;
21626;SDS011;10975;47.872;12.972;2024-03-02T06:25:02;58.83;;;21.17;;
21626;SDS011;10975;47.872;12.972;2024-03-02T06:27:30;31.38;;;19.63;;
21626;SDS011;10975;47.872;12.972;2024-03-02T06:29:56;89.95;;;19.58;;
21626;SDS011;10975;47.872;12.972;2024-03-02T06:32:23;84.80;;;20.00;;
21626;SDS011;10975;47.872;12.972;2024-03-02T06:34:51;70.65;;;20.90;;
21626;SDS011;10975;47.872;12.972;2024-03-02T06:37:18;143.80;;;22.55;;
21626;SDS011;10975;47.872;12.972;2024-03-02T06:39:45;123.28;;;23.23;;
21626;SDS011;10975;47.872;12.972;2024-03-02T06:42:11;92.68;;;22.15;;
21626;SDS011;10975;47.872;12.972;2024-03-02T06:44:38;80.47;;;21.77;;
21626;SDS011;10975;47.872;12.972;2024-03-02T06:47:05;67.72;;;20.50;;
21626;SDS011;10975;47.872;12.972;2024-03-02T06:49:32;104.40;;;22.17;;
21626;SDS011;10975;47.872;12.972;2024-03-02T06:51:59;105.60;;;24.67;;
21626;SDS011;10975;47.872;12.972;2024-03-02T06:54:25;63.75;;;19.95;;
21626;SDS011;10975;47.872;12.972;2024-03-02T06:56:52;27.77;;;19.42;;
21626;SDS011;10975;47.872;12.972;2024-03-02T06:59:19;63.15;;;23.10;;
21626;SDS011;10975;47.872;12.972;2024-03-02T07:01:46;29.85;;;23.27;;
21626;SDS011;10975;47.872;12.972;2024-03-02T07:04:13;53.40;;;27.17;;
21626;SDS011;10975;47.872;12.972;2024-03-02T07:06:39;32.38;;;23.77;;
21626;SDS011;10975;47.872;12.972;2024-03-02T07:09:06;28.00;;;22.17;;
21626;SDS011;10975;47.872;12.972;2024-03-02T07:11:37;29.67;;;21.88;;
21626;SDS011;10975;47.872;12.972;2024-03-02T07:14:03;33.65;;;23.25;;
21626;SDS011;10975;47.872;12.972;2024-03-02T07:16:30;34.60;;;22.40;;
21626;SDS011;10975;47.872;12.972;2024-03-02T07:18:59;29.95;;;20.80;;
21626;SDS011;10975;47.872;12.972;2024-03-02T07:21:27;30.40;;;20.92;;
21626;SDS011;10975;47.872;12.972;2024-03-02T07:23:54;31.58;;;22.13;;
21626;SDS011;10975;47.872;12.972;2024-03-02T07:26:21;30.83;;;21.45;;
21626;SDS011;10975;47.872;12.972;2024-03-02T07:28:54;30.85;;;22.10;;
21626;SDS011;10975;47.872;12.972;2024-03-02T07:31:21;33.40;;;22.13;;
21626;SDS011;10975;47.872;12.972;2024-03-02T07:33:47;46.83;;;24.73;;
21626;SDS011;10975;47.872;12.972;2024-03-02T07:36:14;91.15;;;29.23;;
21626;SDS011;10975;47.872;12.972;2024-03-02T07:38:42;113.60;;;30.98;;
21626;SDS011;10975;47.872;12.972;2024-03-02T07:41:10;115.22;;;30.98;;
21626;SDS011;10975;47.872;12.972;2024-03-02T07:43:37;56.15;;;25.88;;
21626;SDS011;10975;47.872;12.972;2024-03-02T07:46:04;95.80;;;29.85;;
21626;SDS011;10975;47.872;12.972;2024-03-02T07:48:32;163.05;;;32.50;;
21626;SDS011;10975;47.872;12.972;2024-03-02T07:50:59;126.05;;;27.27;;
21626;SDS011;10975;47.872;12.972;2024-03-02T07:53:26;249.18;;;32.63;;
21626;SDS011;10975;47.872;12.972;2024-03-02T07:55:53;168.43;;;31.02;;
21626;SDS011;10975;47.872;12.972;2024-03-02T07:58:20;120.28;;;28.15;;
21626;SDS011;10975;47.872;12.972;2024-03-02T08:00:47;88.80;;;27.63;;
21626;SDS011;10975;47.872;12.972;2024-03-02T08:03:17;140.25;;;28.60;;
21626;SDS011;10975;47.872;12.972;2024-03-02T08:05:44;75.75;;;26.05;;
21626;SDS011;10975;47.872;12.972;2024-03-02T08:08:11;78.95;;;25.90;;
21626;SDS011;10975;47.872;12.972;2024-03-02T08:10:38;46.05;;;25.58;;
21626;SDS011;10975;47.872;12.972;2024-03-02T08:13:04;30.75;;;20.77;;
21626;SDS011;10975;47.872;12.972;2024-03-02T08:15:31;38.95;;;24.08;;
21626;SDS011;10975;47.872;12.972;2024-03-02T08:17:58;33.53;;;21.50;;
21626;SDS011;10975;47.872;12.972;2024-03-02T08:20:25;45.38;;;24.15;;
21626;SDS011;10975;47.872;12.972;2024-03-02T08:22:52;37.80;;;22.92;;
21626;SDS011;10975;47.872;12.972;2024-03-02T08:25:21;35.20;;;23.83;;
21626;SDS011;10975;47.872;12.972;2024-03-02T08:27:48;55.83;;;40.25;;
21626;SDS011;10975;47.872;12.972;2024-03-02T08:30:15;61.60;;;45.85;;
21626;SDS011;10975;47.872;12.972;2024-03-02T08:32:44;39.95;;;28.17;;
21626;SDS011;10975;47.872;12.972;2024-03-02T08:35:13;35.35;;;23.40;;
21626;SDS011;10975;47.872;12.972;2024-03-02T08:37:41;35.03;;;22.42;;
21626;SDS011;10975;47.872;12.972;2024-03-02T08:40:09;41.13;;;25.60;;
21626;SDS011;10975;47.872;12.972;2024-03-02T08:42:40;42.50;;;25.60;;
21626;SDS011;10975;47.872;12.972;2024-03-02T08:45:07;41.75;;;26.45;;
21626;SDS011;10975;47.872;12.972;2024-03-02T08:47:34;39.72;;;26.02;;
21626;SDS011;10975;47.872;12.972;2024-03-02T08:50:01;38.95;;;24.13;;
21626;SDS011;10975;47.872;12.972;2024-03-02T08:52:30;42.67;;;25.00;;
21626;SDS011;10975;47.872;12.972;2024-03-02T08:54:56;37.17;;;23.58;;
21626;SDS011;10975;47.872;12.972;2024-03-02T08:57:23;34.17;;;23.85;;
21626;SDS011;10975;47.872;12.972;2024-03-02T08:59:50;34.50;;;23.08;;
21626;SDS011;10975;47.872;12.972;2024-03-02T09:02:17;32.30;;;22.48;;
21626;SDS011;10975;47.872;12.972;2024-03-02T09:04:44;33.45;;;21.40;;
21626;SDS011;10975;47.872;12.972;2024-03-02T09:07:11;34.60;;;22.30;;
21626;SDS011;10975;47.872;12.972;2024-03-02T09:09:38;33.35;;;22.45;;
21626;SDS011;10975;47.872;12.972;2024-03-02T09:12:05;29.45;;;20.70;;
21626;SDS011;10975;47.872;12.972;2024-03-02T09:14:33;32.45;;;21.75;;
21626;SDS011;10975;47.872;12.972;2024-03-02T09:17:02;30.08;;;21.98;;
21626;SDS011;10975;47.872;12.972;2024-03-02T09:19:30;29.73;;;22.42;;
21626;SDS011;10975;47.872;12.972;2024-03-02T09:21:56;31.10;;;22.70;;
21626;SDS011;10975;47.872;12.972;2024-03-02T09:24:25;34.60;;;22.92;;
21626;SDS011;10975;47.872;12.972;2024-03-02T09:26:52;25.00;;;20.23;;
21626;SDS011;10975;47.872;12.972;2024-03-02T09:29:19;27.23;;;20.48;;
21626;SDS011;10975;47.872;12.972;2024-03-02T09:31:47;30.45;;;19.98;;
21626;SDS011;10975;47.872;12.972;2024-03-02T09:34:14;26.42;;;19.73;;
21626;SDS011;10975;47.872;12.972;2024-03-02T09:36:42;27.50;;;19.38;;
21626;SDS011;10975;47.872;12.972;2024-03-02T09:39:09;26.90;;;19.00;;
21626;SDS011;10975;47.872;12.972;2024-03-02T09:41:37;23.05;;;17.60;;
21626;SDS011;10975;47.872;12.972;2024-03-02T09:44:04;22.67;;;17.83;;
21626;SDS011;10975;47.872;12.972;2024-03-02T09:46:32;27.60;;;18.55;;
21626;SDS011;10975;47.872;12.972;2024-03-02T09:48:59;23.77;;;17.05;;
21626;SDS011;10975;47.872;12.972;2024-03-02T09:51:26;27.98;;;18.25;;
21626;SDS011;10975;47.872;12.972;2024-03-02T09:53:53;24.65;;;17.48;;
21626;SDS011;10975;47.872;12.972;2024-03-02T09:56:28;26.20;;;16.92;;
21626;SDS011;10975;47.872;12.972;2024-03-02T09:58:55;22.73;;;16.85;;
21626;SDS011;10975;47.872;12.972;2024-03-02T10:01:22;22.42;;;16.30;;
21626;SDS011;10975;47.872;12.972;2024-03-02T10:03:49;23.35;;;16.42;;
21626;SDS011;10975;47.872;12.972;2024-03-02T10:06:23;20.42;;;14.82;;
21626;SDS011;10975;47.872;12.972;2024-03-02T10:08:52;21.10;;;15.13;;
21626;SDS011;10975;47.872;12.972;2024-03-02T10:11:27;19.60;;;14.90;;
21626;SDS011;10975;47.872;12.972;2024-03-02T10:14:11;17.77;;;13.63;;
21626;SDS011;10975;47.872;12.972;2024-03-02T10:19:22;17.08;;;14.20;;
21626;SDS011;10975;47.872;12.972;2024-03-02T10:21:51;17.00;;;13.85;;
21626;SDS011;10975;47.872;12.972;2024-03-02T10:24:21;17.65;;;12.95;;
21626;SDS011;10975;47.872;12.972;2024-03-02T10:26:49;14.15;;;12.20;;
21626;SDS011;10975;47.872;12.972;2024-03-02T10:29:17;17.10;;;12.48;;
21626;SDS011;10975;47.872;12.972;2024-03-02T10:31:45;11.95;;;9.65;;
21626;SDS011;10975;47.872;12.972;2024-03-02T10:34:12;14.55;;;11.70;;
21626;SDS011;10975;47.872;12.972;2024-03-02T10:36:41;11.20;;;9.18;;
21626;SDS011;10975;47.872;12.972;2024-03-02T10:39:08;12.77;;;10.25;;
21626;SDS011;10975;47.872;12.972;2024-03-02T10:41:36;10.88;;;9.68;;
21626;SDS011;10975;47.872;12.972;2024-03-02T10:44:08;9.73;;;7.60;;
21626;SDS011;10975;47.872;12.972;2024-03-02T10:46:36;8.75;;;7.88;;
21626;SDS011;10975;47.872;12.972;2024-03-02T10:49:04;9.35;;;7.50;;
21626;SDS011;10975;47.872;12.972;2024-03-02T10:51:34;7.97;;;7.18;;
21626;SDS011;10975;47.872;12.972;2024-03-02T10:54:03;8.80;;;7.07;;
21626;SDS011;10975;47.872;12.972;2024-03-02T10:56:31;9.15;;;6.60;;
21626;SDS011;10975;47.872;12.972;2024-03-02T10:59:19;10.57;;;7.43;;
21626;SDS011;10975;47.872;12.972;2024-03-02T11:01:48;8.90;;;7.82;;
21626;SDS011;10975;47.872;12.972;2024-03-02T11:04:20;9.15;;;8.20;;
21626;SDS011;10975;47.872;12.972;2024-03-02T11:06:51;15.23;;;12.73;;
21626;SDS011;10975;47.872;12.972;2024-03-02T11:09:18;8.77;;;7.60;;
21626;SDS011;10975;47.872;12.972;2024-03-02T11:11:54;8.98;;;8.07;;
21626;SDS011;10975;47.872;12.972;2024-03-02T11:14:28;9.27;;;7.88;;
21626;SDS011;10975;47.872;12.972;2024-03-02T11:16:57;9.93;;;7.97;;
21626;SDS011;10975;47.872;12.972;2024-03-02T11:19:24;10.93;;;8.15;;
21626;SDS011;10975;47.872;12.972;2024-03-02T11:21:51;9.93;;;7.70;;
21626;SDS011;10975;47.872;12.972;2024-03-02T11:24:28;13.40;;;11.57;;
21626;SDS011;10975;47.872;12.972;2024-03-02T11:27:04;13.77;;;11.52;;
21626;SDS011;10975;47.872;12.972;2024-03-02T11:32:02;12.75;;;11.38;;
21626;SDS011;10975;47.872;12.972;2024-03-02T11:34:41;13.25;;;10.90;;
21626;SDS011;10975;47.872;12.972;2024-03-02T11:37:19;11.65;;;10.45;;
21626;SDS011;10975;47.872;12.972;2024-03-02T11:39:49;12.23;;;10.23;;
21626;SDS011;10975;47.872;12.972;2024-03-02T11:42:17;12.13;;;9.07;;
21626;SDS011;10975;47.872;12.972;2024-03-02T11:44:45;12.75;;;10.07;;
21626;SDS011;10975;47.872;12.972;2024-03-02T11:47:16;11.93;;;10.73;;
21626;SDS011;10975;47.872;12.972;2024-03-02T11:49:50;12.35;;;10.13;;
21626;SDS011;10975;47.872;12.972;2024-03-02T11:52:20;12.63;;;11.23;;
21626;SDS011;10975;47.872;12.972;2024-03-02T11:54:49;15.05;;;12.20;;
21626;SDS011;10975;47.872;12.972;2024-03-02T11:57:18;15.23;;;11.38;;
21626;SDS011;10975;47.872;12.972;2024-03-02T11:59:47;13.55;;;11.98;;
21626;SDS011;10975;47.872;12.972;2024-03-02T12:02:16;14.35;;;12.60;;
21626;SDS011;10975;47.872;12.972;2024-03-02T12:04:45;15.40;;;12.02;;
21626;SDS011;10975;47.872;12.972;2024-03-02T12:07:18;13.90;;;11.75;;
21626;SDS011;10975;47.872;12.972;2024-03-02T12:09:47;16.02;;;13.38;;
21626;SDS011;10975;47.872;12.972;2024-03-02T12:12:15;16.15;;;13.23;;
21626;SDS011;10975;47.872;12.972;2024-03-02T12:14:49;16.30;;;13.25;;
21626;SDS011;10975;47.872;12.972;2024-03-02T12:17:18;16.65;;;13.93;;
21626;SDS011;10975;47.872;12.972;2024-03-02T12:19:45;16.67;;;14.43;;
21626;SDS011;10975;47.872;12.972;2024-03-02T12:22:12;18.27;;;13.88;;
21626;SDS011;10975;47.872;12.972;2024-03-02T12:24:39;15.13;;;13.05;;
21626;SDS011;10975;47.872;12.972;2024-03-02T12:27:07;16.15;;;13.65;;
21626;SDS011;10975;47.872;12.972;2024-03-02T12:29:34;18.30;;;13.98;;
21626;SDS011;10975;47.872;12.972;2024-03-02T12:32:01;17.60;;;14.02;;
21626;SDS011;10975;47.872;12.972;2024-03-02T12:34:28;16.45;;;13.82;;
21626;SDS011;10975;47.872;12.972;2024-03-02T12:36:55;18.38;;;15.02;;
21626;SDS011;10975;47.872;12.972;2024-03-02T12:39:22;16.25;;;13.75;;
21626;SDS011;10975;47.872;12.972;2024-03-02T12:41:50;16.63;;;12.18;;
21626;SDS011;10975;47.872;12.972;2024-03-02T12:44:17;16.38;;;13.50;;
21626;SDS011;10975;47.872;12.972;2024-03-02T12:46:45;10.27;;;9.27;;
21626;SDS011;10975;47.872;12.972;2024-03-02T12:49:13;16.25;;;12.85;;
21626;SDS011;10975;47.872;12.972;2024-03-02T12:54:13;14.63;;;11.43;;
21626;SDS011;10975;47.872;12.972;2024-03-02T12:56:41;13.48;;;11.30;;
21626;SDS011;10975;47.872;12.972;2024-03-02T12:59:19;16.05;;;11.80;;
21626;SDS011;10975;47.872;12.972;2024-03-02T13:01:51;11.77;;;10.45;;
21626;SDS011;10975;47.872;12.972;2024-03-02T13:04:25;14.23;;;11.68;;
21626;SDS011;10975;47.872;12.972;2024-03-02T13:06:52;16.58;;;12.07;;
21626;SDS011;10975;47.872;12.972;2024-03-02T13:09:21;15.32;;;12.45;;
21626;SDS011;10975;47.872;12.972;2024-03-02T13:11:49;13.52;;;11.38;;
21626;SDS011;10975;47.872;12.972;2024-03-02T13:14:16;18.70;;;14.38;;
21626;SDS011;10975;47.872;12.972;2024-03-02T13:16:44;11.00;;;9.57;;
21626;SDS011;10975;47.872;12.972;2024-03-02T13:19:13;20.20;;;15.30;;
21626;SDS011;10975;47.872;12.972;2024-03-02T13:21:40;21.17;;;16.00;;
21626;SDS011;10975;47.872;12.972;2024-03-02T13:24:08;12.13;;;10.73;;
21626;SDS011;10975;47.872;12.972;2024-03-02T13:26:34;14.02;;;10.75;;
21626;SDS011;10975;47.872;12.972;2024-03-02T13:29:01;13.98;;;10.98;;
21626;SDS011;10975;47.872;12.972;2024-03-02T13:31:28;12.27;;;10.93;;
21626;SDS011;10975;47.872;12.972;2024-03-02T13:33:55;14.60;;;10.88;;
21626;SDS011;10975;47.872;12.972;2024-03-02T13:36:22;11.65;;;8.82;;
21626;SDS011;10975;47.872;12.972;2024-03-02T13:38:50;9.73;;;7.35;;
21626;SDS011;10975;47.872;12.972;2024-03-02T13:41:17;10.25;;;8.68;;
21626;SDS011;10975;47.872;12.972;2024-03-02T13:43:44;11.45;;;9.35;;
21626;SDS011;10975;47.872;12.972;2024-03-02T13:46:11;12.00;;;9.80;;
21626;SDS011;10975;47.872;12.972;2024-03-02T13:48:38;15.30;;;11.27;;
21626;SDS011;10975;47.872;12.972;2024-03-02T13:51:05;15.18;;;12.38;;
21626;SDS011;10975;47.872;12.972;2024-03-02T13:53:32;18.40;;;13.48;;
21626;SDS011;10975;47.872;12.972;2024-03-02T13:55:59;15.95;;;13.18;;
21626;SDS011;10975;47.872;12.972;2024-03-02T13:58:25;15.95;;;13.57;;
21626;SDS011;10975;47.872;12.972;2024-03-02T14:00:53;15.23;;;12.90;;
21626;SDS011;10975;47.872;12.972;2024-03-02T14:03:20;14.98;;;13.02;;
21626;SDS011;10975;47.872;12.972;2024-03-02T14:05:49;16.67;;;13.18;;
21626;SDS011;10975;47.872;12.972;2024-03-02T14:08:17;17.83;;;14.05;;
21626;SDS011;10975;47.872;12.972;2024-03-02T14:10:44;15.75;;;13.13;;
21626;SDS011;10975;47.872;12.972;2024-03-02T14:13:11;20.77;;;13.68;;
21626;SDS011;10975;47.872;12.972;2024-03-02T14:15:38;16.77;;;13.77;;
21626;SDS011;10975;47.872;12.972;2024-03-02T14:18:05;20.50;;;15.38;;
21626;SDS011;10975;47.872;12.972;2024-03-02T14:20:32;16.90;;;13.25;;
21626;SDS011;10975;47.872;12.972;2024-03-02T14:22:59;17.08;;;13.45;;
21626;SDS011;10975;47.872;12.972;2024-03-02T14:25:27;15.85;;;12.68;;